createdAt,value
2023-02-22T00:02:47.046Z,3.25
2023-02-22T00:07:49.800Z,3.95
2023-02-22T00:12:52.820Z,3.75
2023-02-22T00:17:55.338Z,3.53
2023-02-22T00:22:57.572Z,2.92
2023-02-22T00:27:59.772Z,3.22
2023-02-22T00:33:02.057Z,3.10
2023-02-22T00:38:05.770Z,3.28
2023-02-22T00:43:08.182Z,3.00
2023-02-22T00:48:10.412Z,3.85
2023-02-22T00:53:12.613Z,3.50
2023-02-22T00:58:14.791Z,3.53
2023-02-22T01:03:19.106Z,3.50
2023-02-22T01:08:21.485Z,3.95
2023-02-22T01:13:23.756Z,3.65
2023-02-22T01:18:27.585Z,4.78
2023-02-22T01:23:29.823Z,3.10
2023-02-22T01:28:34.196Z,3.00
2023-02-22T01:33:37.477Z,4.53
2023-02-22T01:38:39.732Z,3.50
2023-02-22T01:43:41.868Z,4.80
2023-02-22T01:48:46.456Z,4.25
2023-02-22T01:53:53.095Z,5.55
2023-02-22T01:59:03.158Z,4.60
2023-02-22T02:04:11.033Z,3.42
2023-02-22T02:09:34.844Z,4.00
2023-02-22T02:14:40.697Z,4.72
2023-02-22T02:19:43.025Z,4.57
2023-02-22T02:24:57.753Z,4.90
2023-02-22T02:30:15.437Z,4.57
2023-02-22T02:35:30.065Z,5.30
2023-02-22T02:40:39.954Z,5.13
2023-02-22T02:46:04.120Z,4.97
2023-02-22T02:51:08.707Z,4.80
2023-02-22T02:56:11.010Z,4.45
2023-02-22T03:01:14.800Z,4.70
2023-02-22T03:06:35.589Z,4.15
2023-02-22T03:11:48.961Z,3.85
2023-02-22T03:17:00.921Z,3.90
2023-02-22T03:22:03.207Z,3.58
2023-02-22T03:27:21.830Z,4.03
2023-02-22T03:32:29.759Z,3.47
2023-02-22T03:37:34.637Z,4.18
2023-02-22T03:42:37.993Z,3.35
2023-02-22T03:47:43.052Z,3.15
2023-02-22T03:52:45.721Z,3.33
2023-02-22T03:57:57.096Z,2.63
2023-02-22T04:02:59.744Z,4.50
2023-02-22T04:08:01.959Z,4.80
2023-02-22T04:13:09.227Z,4.70
2023-02-22T04:18:15.353Z,4.85
2023-02-22T04:23:17.783Z,4.70
2023-02-22T04:28:20.287Z,4.07
2023-02-22T04:33:27.978Z,5.00
2023-02-22T04:38:30.356Z,4.88
2023-02-22T04:43:34.355Z,5.32
2023-02-22T04:48:44.113Z,4.78
2023-02-22T04:53:46.674Z,5.10
2023-02-22T04:58:49.340Z,4.28
2023-02-22T05:03:51.554Z,5.03
2023-02-22T05:08:53.728Z,4.40
2023-02-22T05:13:55.919Z,4.03
2023-02-22T05:18:58.188Z,3.85
2023-02-22T05:24:00.466Z,3.90
2023-02-22T05:29:02.778Z,4.50
2023-02-22T05:34:06.257Z,5.20
2023-02-22T05:39:08.419Z,3.88
2023-02-22T05:44:10.566Z,4.22
2023-02-22T05:49:12.783Z,5.03
2023-02-22T05:54:14.931Z,4.43
2023-02-22T05:59:17.072Z,3.40
2023-02-22T06:04:19.218Z,5.20
2023-02-22T06:09:21.372Z,3.15
2023-02-22T06:14:24.700Z,2.97
2023-02-22T06:19:27.078Z,4.25
2023-02-22T06:24:29.529Z,4.57
2023-02-22T06:29:31.780Z,3.88
2023-02-22T06:34:33.993Z,4.25
2023-02-22T06:39:36.088Z,4.25
2023-02-22T06:44:38.299Z,4.82
2023-02-22T06:49:40.474Z,5.22
2023-02-22T06:54:43.712Z,4.10
2023-02-22T06:59:45.821Z,4.32
2023-02-22T07:04:47.953Z,4.65
2023-02-22T07:09:50.083Z,4.30
2023-02-22T07:14:54.917Z,4.03
2023-02-22T07:19:57.094Z,4.80
2023-02-22T07:25:00.456Z,4.43
2023-02-22T07:30:02.688Z,5.47
2023-02-22T07:35:05.432Z,4.82
2023-02-22T07:40:07.689Z,4.70
2023-02-22T07:45:09.828Z,5.20
2023-02-22T07:50:13.301Z,5.93
2023-02-22T07:55:17.079Z,5.78
2023-02-22T08:00:26.167Z,5.63
2023-02-22T08:05:29.013Z,4.30
2023-02-22T08:10:31.237Z,4.22
2023-02-22T08:15:35.359Z,3.80
2023-02-22T08:20:38.460Z,4.50
2023-02-22T08:25:41.060Z,4.78
2023-02-22T08:30:44.107Z,4.72
2023-02-22T08:35:49.911Z,5.25
2023-02-22T08:40:52.375Z,5.75
2023-02-22T08:45:57.283Z,5.68
2023-02-22T08:50:59.901Z,5.25
2023-02-22T08:56:02.035Z,4.40
2023-02-22T09:01:04.238Z,5.13
2023-02-22T09:06:08.280Z,4.43
2023-02-22T09:11:10.685Z,5.38
2023-02-22T09:16:13.046Z,4.53
2023-02-22T09:21:15.672Z,5.78
2023-02-22T09:26:18.175Z,4.90
2023-02-22T09:31:20.838Z,4.40
2023-02-22T09:36:25.174Z,5.68
2023-02-22T09:41:35.193Z,4.97
2023-02-22T09:46:42.328Z,5.22
2023-02-22T09:51:44.487Z,8.07
2023-02-22T09:56:47.419Z,6.72
2023-02-22T10:01:54.124Z,4.68
2023-02-22T10:06:56.311Z,4.55
2023-02-22T10:12:05.083Z,6.75
2023-02-22T10:17:13.304Z,5.88
2023-02-22T10:22:34.474Z,5.82
2023-02-22T10:27:42.140Z,6.10
2023-02-22T10:32:45.819Z,6.50
2023-02-22T10:37:49.307Z,7.22
2023-02-22T10:42:51.527Z,6.20
2023-02-22T10:47:55.815Z,7.22
2023-02-22T10:52:58.046Z,8.50
2023-02-22T10:58:02.836Z,6.25
2023-02-22T11:03:16.951Z,6.60
2023-02-22T11:13:28.850Z,6.95
2023-02-22T11:18:33.179Z,10.00
2023-02-22T11:23:36.367Z,5.07
2023-02-22T11:28:49.543Z,6.07
2023-02-22T11:34:00.360Z,7.75
2023-02-22T11:39:05.975Z,8.63
2023-02-22T11:44:21.429Z,8.75
2023-02-22T11:49:24.887Z,8.77
2023-02-22T11:54:29.233Z,7.63
2023-02-22T11:59:38.715Z,8.52
2023-02-22T12:04:41.216Z,7.15
2023-02-22T12:10:01.399Z,7.30
2023-02-22T12:15:22.266Z,7.38
2023-02-22T12:20:43.072Z,7.20
2023-02-22T12:25:58.911Z,6.68
2023-02-22T12:31:08.094Z,7.03
2023-02-22T12:36:13.619Z,5.80
2023-02-22T12:41:21.067Z,7.95
2023-02-22T12:46:27.392Z,7.50
2023-02-22T12:51:47.954Z,7.55
2023-02-22T13:01:54.279Z,8.88
2023-02-22T13:07:10.398Z,6.78
2023-02-22T13:12:16.707Z,9.07
2023-02-22T13:17:42.638Z,4.60
2023-02-22T13:23:14.166Z,8.77
2023-02-22T13:28:25.500Z,7.65
2023-02-22T13:33:39.457Z,7.60
2023-02-22T13:38:41.636Z,9.25
2023-02-22T13:48:48.857Z,7.97
2023-02-22T13:53:56.408Z,9.38
2023-02-22T13:58:59.792Z,7.45
2023-02-22T14:04:19.900Z,7.97
2023-02-22T14:09:45.743Z,6.88
2023-02-22T14:15:15.413Z,7.68
2023-02-22T14:20:32.914Z,7.05
2023-02-22T14:25:37.553Z,9.85
2023-02-22T14:30:41.338Z,8.82
2023-02-22T14:35:49.874Z,4.93
2023-02-22T14:40:53.370Z,7.47
2023-02-22T14:45:56.865Z,7.60
2023-02-22T14:51:15.650Z,9.45
2023-02-22T14:56:24.082Z,6.82
2023-02-22T15:01:48.919Z,7.35
2023-02-22T15:06:56.074Z,4.75
2023-02-22T15:12:04.899Z,7.22
2023-02-22T15:17:09.538Z,8.02
2023-02-22T15:22:24.924Z,8.27
2023-02-22T15:27:28.562Z,5.97
2023-02-22T15:32:32.248Z,9.13
2023-02-22T15:37:34.390Z,7.30
2023-02-22T15:42:43.049Z,8.43
2023-02-22T15:52:53.529Z,7.75
2023-02-22T15:57:56.911Z,9.95
2023-02-22T16:02:59.628Z,9.32
2023-02-22T16:08:01.802Z,6.88
2023-02-22T16:13:11.100Z,9.98
2023-02-22T16:18:17.035Z,9.70
2023-02-22T16:23:23.610Z,8.00
2023-02-22T16:28:27.411Z,9.77
2023-02-22T16:33:34.150Z,7.63
2023-02-22T16:38:38.668Z,8.20
2023-02-22T16:43:45.599Z,7.35
2023-02-22T16:48:47.847Z,11.43
2023-02-22T16:53:50.318Z,9.25
2023-02-22T17:03:55.903Z,9.82
2023-02-22T17:08:58.191Z,8.98
2023-02-22T17:14:00.400Z,8.55
2023-02-22T17:19:05.289Z,9.68
2023-02-22T17:24:07.402Z,8.20
2023-02-22T17:29:09.590Z,9.05
2023-02-22T17:34:13.436Z,7.53
2023-02-22T17:39:15.800Z,6.95
2023-02-22T17:44:17.976Z,7.72
2023-02-22T17:49:20.392Z,9.45
2023-02-22T17:54:23.319Z,8.35
2023-02-22T17:59:25.739Z,7.57
2023-02-22T18:04:27.927Z,8.82
2023-02-22T18:09:30.158Z,6.25
2023-02-22T18:14:32.330Z,5.63
2023-02-22T18:19:34.485Z,9.63
2023-02-22T18:24:36.710Z,8.43
2023-02-22T18:29:38.867Z,8.07
2023-02-22T18:34:41.011Z,6.63
2023-02-22T18:39:43.383Z,8.43
2023-02-22T18:44:45.506Z,9.27
2023-02-22T18:49:49.033Z,7.00
2023-02-22T18:54:51.300Z,8.07
2023-02-22T18:59:55.245Z,7.05
2023-02-22T19:04:58.172Z,7.10
2023-02-22T19:10:01.438Z,7.25
2023-02-22T19:15:04.373Z,9.30
2023-02-22T19:25:09.673Z,7.90
2023-02-22T19:35:26.444Z,8.52
2023-02-22T19:40:28.830Z,8.70
2023-02-22T19:45:31.084Z,6.90
2023-02-22T19:50:33.370Z,9.05
2023-02-22T19:55:36.717Z,5.45
2023-02-22T20:00:38.894Z,8.25
2023-02-22T20:05:41.692Z,6.30
2023-02-22T20:10:43.849Z,7.75
2023-02-22T20:15:46.262Z,11.35
2023-02-22T20:20:48.622Z,7.30
2023-02-22T20:25:57.108Z,8.05
2023-02-22T20:30:59.274Z,7.95
2023-02-22T20:36:04.440Z,5.97
2023-02-22T20:41:07.511Z,7.72
2023-02-22T20:46:09.665Z,9.07
2023-02-22T20:51:12.736Z,6.70
2023-02-22T20:56:16.205Z,6.60
2023-02-22T21:01:22.896Z,5.88
2023-02-22T21:06:25.078Z,7.63
2023-02-22T21:11:28.677Z,6.70
2023-02-22T21:16:32.100Z,8.07
2023-02-22T21:21:35.079Z,8.68
2023-02-22T21:26:37.493Z,8.00
2023-02-22T21:31:39.784Z,7.18
2023-02-22T21:36:42.013Z,5.20
2023-02-22T21:41:45.249Z,6.35
2023-02-22T21:46:50.326Z,6.57
2023-02-22T21:51:52.840Z,8.05
2023-02-22T21:56:55.048Z,6.20
2023-02-22T22:01:57.377Z,9.20
2023-02-22T22:07:00.287Z,5.32
2023-02-22T22:12:05.485Z,5.97
2023-02-22T22:17:09.636Z,8.02
2023-02-22T22:22:12.668Z,8.55
2023-02-22T22:27:15.349Z,5.60
2023-02-22T22:37:23.287Z,6.72
2023-02-22T22:42:25.618Z,4.50
2023-02-22T22:47:28.907Z,5.28
2023-02-22T22:52:35.357Z,4.15
2023-02-22T22:57:38.893Z,3.45
2023-02-22T23:02:41.116Z,7.15
2023-02-22T23:07:43.641Z,9.68
2023-02-22T23:12:46.025Z,5.93
2023-02-22T23:17:48.666Z,8.02
2023-02-22T23:22:51.405Z,4.30
2023-02-22T23:27:53.854Z,6.68
2023-02-22T23:32:57.316Z,5.00
2023-02-22T23:38:00.747Z,7.20
2023-02-22T23:43:05.337Z,7.47
2023-02-22T23:48:07.511Z,6.30
2023-02-22T23:53:15.392Z,7.03
2023-02-22T23:58:17.592Z,7.05
